createdAt,value
2017-11-17T00:01:03.428Z,67.91
2017-11-17T00:02:16.444Z,67.82
2017-11-17T00:03:28.551Z,68.2
2017-11-17T00:04:41.542Z,68.1
2017-11-17T00:05:54.106Z,68.68
2017-11-17T00:07:07.179Z,68.68
2017-11-17T00:08:20.291Z,68.2
2017-11-17T00:09:33.608Z,68.2
2017-11-17T00:10:46.145Z,68.1
2017-11-17T00:11:59.214Z,68.4
2017-11-17T00:13:12.229Z,68.3
2017-11-17T00:14:24.738Z,68.49
2017-11-17T00:15:37.810Z,67.52
2017-11-17T00:16:50.847Z,66.56
2017-11-17T00:18:03.897Z,66.85
2017-11-17T00:19:16.488Z,66.75
2017-11-17T00:20:29.529Z,66.85
2017-11-17T00:21:42.627Z,66.75
2017-11-17T00:22:55.329Z,66.66
2017-11-17T00:24:07.427Z,67.04
2017-11-17T00:25:19.969Z,66.75
2017-11-17T00:26:33.023Z,66.66
2017-11-17T00:27:46.121Z,66.56
2017-11-17T00:28:59.101Z,66.85
2017-11-17T00:30:12.357Z,67.72
2017-11-17T00:31:25.168Z,66.85
2017-11-17T00:32:38.240Z,66.75
2017-11-17T00:33:51.340Z,66.36
2017-11-17T00:35:04.625Z,66.08
2017-11-17T00:36:17.598Z,66.66
2017-11-17T00:37:30.625Z,66.27
2017-11-17T00:38:43.107Z,66.27
2017-11-17T00:39:56.098Z,66.56
2017-11-17T00:41:08.201Z,66.46
2017-11-17T00:42:21.249Z,67.72
2017-11-17T00:43:34.237Z,67.91
2017-11-17T00:44:47.235Z,67.91
2017-11-17T00:46:00.263Z,68.68
2017-11-17T00:47:12.818Z,68.88
2017-11-17T00:48:25.297Z,69.94
2017-11-17T00:49:37.835Z,70.32
2017-11-17T00:50:50.826Z,71.36
2017-11-17T00:52:02.896Z,71.74
2017-11-17T00:53:15.893Z,71.55
2017-11-17T00:54:27.959Z,72.61
2017-11-17T00:55:40.985Z,72.32
2017-11-17T00:56:53.988Z,72.13
2017-11-17T00:58:06.525Z,72.13
2017-11-17T00:59:19.504Z,72.22
2017-11-17T01:00:32.038Z,72.71
2017-11-17T01:01:45.122Z,72.71
2017-11-17T01:02:57.650Z,72.71
2017-11-17T01:04:10.178Z,74.12
2017-11-17T01:05:23.147Z,75.12
2017-11-17T01:06:36.542Z,74.93
2017-11-17T01:07:49.077Z,76.82
2017-11-17T01:09:02.066Z,75.76
2017-11-17T01:10:15.063Z,76.05
2017-11-17T01:11:27.403Z,76.4
2017-11-17T01:12:39.511Z,76.05
2017-11-17T01:13:52.044Z,76.3
2017-11-17T01:15:04.624Z,76.5
2017-11-17T01:16:17.169Z,75.34
2017-11-17T01:17:29.736Z,74.6
2017-11-17T01:18:42.746Z,74.21
2017-11-17T01:19:55.820Z,74.12
2017-11-17T01:21:08.848Z,73.73
2017-11-17T01:22:21.573Z,74.69
2017-11-17T01:23:34.100Z,73.93
2017-11-17T01:24:46.658Z,75.09
2017-11-17T01:25:59.665Z,76.24
2017-11-17T01:27:11.722Z,76.63
2017-11-17T01:28:24.749Z,76.72
2017-11-17T01:29:37.981Z,76.68
2017-11-17T01:30:50.962Z,74.79
2017-11-17T01:32:03.492Z,76.2
2017-11-17T01:33:16.505Z,76.92
2017-11-17T01:34:29.058Z,77.01
2017-11-17T01:35:42.108Z,77.5
2017-11-17T01:36:55.189Z,75.67
2017-11-17T01:38:08.226Z,75.37
2017-11-17T01:39:21.245Z,74.02
2017-11-17T01:40:34.225Z,73.83
2017-11-17T01:41:46.715Z,73.44
2017-11-17T01:42:59.738Z,74.41
2017-11-17T01:44:12.758Z,73.25
2017-11-17T01:45:25.758Z,73.25
2017-11-17T01:46:38.783Z,74.35
2017-11-17T01:47:51.803Z,73.19
2017-11-17T01:49:04.828Z,73.54
2017-11-17T01:50:16.422Z,74.02
2017-11-17T01:51:29.457Z,74.02
2017-11-17T01:52:42.496Z,74.12
2017-11-17T01:53:55.490Z,74.12
2017-11-17T01:55:08.517Z,74.21
2017-11-17T01:56:21.469Z,74.02
2017-11-17T01:57:34.528Z,72.96
2017-11-17T01:58:47.537Z,73.44
2017-11-17T02:00:00.092Z,73.58
2017-11-17T02:01:13.126Z,73.63
2017-11-17T02:02:26.139Z,73.19
2017-11-17T02:03:39.120Z,73.15
2017-11-17T02:04:51.637Z,73.09
2017-11-17T02:06:04.181Z,73.19
2017-11-17T02:07:17.209Z,73.09
2017-11-17T02:08:30.217Z,72.61
2017-11-17T02:09:43.253Z,73.19
2017-11-17T02:10:56.231Z,72.42
2017-11-17T02:12:08.254Z,71.94
2017-11-17T02:13:21.277Z,73
2017-11-17T02:14:34.268Z,72
2017-11-17T02:15:47.272Z,72.67
2017-11-17T02:16:59.332Z,72.48
2017-11-17T02:18:12.331Z,72.48
2017-11-17T02:19:25.356Z,72.96
2017-11-17T02:20:38.352Z,72.28
2017-11-17T02:21:51.122Z,71.32
2017-11-17T02:23:04.150Z,70.54
2017-11-17T02:24:17.116Z,69.68
2017-11-17T02:25:30.088Z,69.68
2017-11-17T02:26:43.147Z,68.43
2017-11-17T02:27:55.707Z,68.26
2017-11-17T02:29:08.289Z,68.55
2017-11-17T02:30:21.333Z,68.65
2017-11-17T02:31:34.325Z,68.75
2017-11-17T02:32:47.384Z,69.9
2017-11-17T02:34:00.419Z,69.42
2017-11-17T02:35:13.464Z,69.42
2017-11-17T02:36:26.032Z,69.42
2017-11-17T02:37:39.108Z,69.9
2017-11-17T02:38:51.665Z,69.42
2017-11-17T02:40:04.208Z,69.62
2017-11-17T02:41:17.242Z,69.62
2017-11-17T02:42:30.243Z,69.71
2017-11-17T02:43:43.275Z,70.45
2017-11-17T02:44:56.294Z,70.74
2017-11-17T02:46:08.825Z,71.12
2017-11-17T02:47:21.405Z,71.03
2017-11-17T02:48:34.453Z,71.51
2017-11-17T02:49:47.454Z,71.22
2017-11-17T02:51:00.472Z,71.8
2017-11-17T02:52:13.475Z,71.7
2017-11-17T02:53:26.025Z,71.22
2017-11-17T02:54:38.087Z,71.12
2017-11-17T02:55:51.116Z,72.28
2017-11-17T02:57:03.672Z,71.42
2017-11-17T02:58:16.219Z,71.32
2017-11-17T02:59:28.739Z,72.09
2017-11-17T03:00:41.283Z,71.61
2017-11-17T03:01:54.273Z,72.28
2017-11-17T03:03:07.302Z,72.67
2017-11-17T03:04:20.538Z,72.58
2017-11-17T03:05:33.513Z,72.48
2017-11-17T03:06:46.523Z,72.77
2017-11-17T03:07:59.518Z,72.48
2017-11-17T03:09:12.527Z,72.77
2017-11-17T03:10:25.528Z,72.58
2017-11-17T03:11:38.492Z,72.09
2017-11-17T03:12:51.494Z,72.09
2017-11-17T03:14:04.052Z,72
2017-11-17T03:15:17.038Z,71.42
2017-11-17T03:16:30.017Z,70.74
2017-11-17T03:17:42.641Z,69.78
2017-11-17T03:18:55.715Z,70.84
2017-11-17T03:20:08.693Z,71.51
2017-11-17T03:21:21.699Z,70.36
2017-11-17T03:22:34.719Z,70.36
2017-11-17T03:23:47.725Z,71.12
2017-11-17T03:25:00.718Z,71.7
2017-11-17T03:26:13.728Z,71.51
2017-11-17T03:27:25.812Z,71.32
2017-11-17T03:28:38.347Z,72.28
2017-11-17T03:29:51.318Z,72.67
2017-11-17T03:31:03.913Z,73.15
2017-11-17T03:32:16.431Z,71.42
2017-11-17T03:33:29.407Z,72.38
2017-11-17T03:34:41.934Z,72.19
2017-11-17T03:35:54.940Z,72.48
2017-11-17T03:37:07.951Z,73.54
2017-11-17T03:38:20.923Z,73.15
2017-11-17T03:39:33.453Z,73.25
2017-11-17T03:40:46.483Z,72.96
2017-11-17T03:41:59.497Z,73.25
2017-11-17T03:43:11.552Z,72.19
2017-11-17T03:44:24.719Z,72.19
2017-11-17T03:45:37.716Z,72.19
2017-11-17T03:46:50.281Z,71.9
2017-11-17T03:48:03.350Z,71.61
2017-11-17T03:49:15.879Z,70.94
2017-11-17T03:50:27.956Z,72
2017-11-17T03:51:40.512Z,71.42
2017-11-17T03:52:53.577Z,71.7
2017-11-17T03:54:06.553Z,71.8
2017-11-17T03:55:19.591Z,71.42
2017-11-17T03:56:32.626Z,71.61
2017-11-17T03:57:45.137Z,71.61
2017-11-17T03:58:58.137Z,71.51
2017-11-17T04:00:11.133Z,71.22
2017-11-17T04:01:24.203Z,71.7
2017-11-17T04:02:37.252Z,71.61
2017-11-17T04:03:50.270Z,71.61
2017-11-17T04:05:03.298Z,72.09
2017-11-17T04:06:15.856Z,72
2017-11-17T04:07:28.877Z,72
2017-11-17T04:08:42.081Z,72.19
2017-11-17T04:09:55.089Z,72.63
2017-11-17T04:11:07.597Z,72.19
2017-11-17T04:12:20.598Z,72.63
2017-11-17T04:13:33.140Z,71.96
2017-11-17T04:14:46.165Z,72
2017-11-17T04:15:59.148Z,72.09
2017-11-17T04:17:12.144Z,70.45
2017-11-17T04:18:25.147Z,70.94
2017-11-17T04:19:37.657Z,70.84
2017-11-17T04:20:50.634Z,70.45
2017-11-17T04:22:03.192Z,71.03
2017-11-17T04:23:15.738Z,71.32
2017-11-17T04:24:28.724Z,71.42
2017-11-17T04:25:41.758Z,71.22
2017-11-17T04:26:54.745Z,71.38
2017-11-17T04:28:07.750Z,72.19
2017-11-17T04:29:20.306Z,72.77
2017-11-17T04:30:32.805Z,73.5
2017-11-17T04:31:45.348Z,74.08
2017-11-17T04:32:58.331Z,76.1
2017-11-17T04:34:11.312Z,76.78
2017-11-17T04:35:24.320Z,76.78
2017-11-17T04:36:37.352Z,77.46
2017-11-17T04:37:50.359Z,78.23
2017-11-17T04:39:03.336Z,78.13
2017-11-17T04:40:15.837Z,78.09
2017-11-17T04:41:28.843Z,78
2017-11-17T04:42:41.377Z,78.58
2017-11-17T04:43:54.403Z,79.25
2017-11-17T04:45:07.395Z,79.44
2017-11-17T04:46:20.394Z,79.54
2017-11-17T04:47:32.925Z,80.22
2017-11-17T04:48:45.877Z,80.12
2017-11-17T04:49:58.868Z,78.48
2017-11-17T04:51:11.926Z,78.67
2017-11-17T04:52:24.896Z,78.48
2017-11-17T04:53:37.924Z,79.35
2017-11-17T04:54:50.963Z,79.16
2017-11-17T04:56:03.945Z,78.77
2017-11-17T04:57:15.991Z,78.48
2017-11-17T04:58:29.013Z,78.29
2017-11-17T04:59:41.536Z,78.19
2017-11-17T05:00:54.753Z,78.86
2017-11-17T05:02:09.423Z,79.16
2017-11-17T05:03:23.240Z,78.15
2017-11-17T05:04:36.441Z,78.29
2017-11-17T05:05:49.433Z,78.15
2017-11-17T05:07:01.997Z,77.61
2017-11-17T05:08:14.299Z,78.29
2017-11-17T05:09:27.965Z,78.19
2017-11-17T05:10:41.080Z,77.48
2017-11-17T05:11:54.860Z,77.33
2017-11-17T05:13:08.281Z,77.33
2017-11-17T05:14:25.184Z,77.33
2017-11-17T05:15:39.061Z,76.84
2017-11-17T05:16:51.586Z,77.42
2017-11-17T05:18:04.582Z,77.71
2017-11-17T05:19:17.557Z,77.51
2017-11-17T05:20:30.586Z,78.29
2017-11-17T05:21:42.641Z,78.38
2017-11-17T05:22:55.469Z,78.06
2017-11-17T05:24:07.970Z,78.34
2017-11-17T05:25:20.671Z,78.73
2017-11-17T05:26:33.204Z,78.92
2017-11-17T05:27:45.892Z,79.02
2017-11-17T05:28:58.017Z,78.25
2017-11-17T05:30:11.068Z,78.54
2017-11-17T05:31:23.635Z,78.54
2017-11-17T05:32:36.436Z,78.54
2017-11-17T05:33:49.430Z,79.11
2017-11-17T05:35:02.449Z,80.08
2017-11-17T05:36:14.974Z,80.08
2017-11-17T05:37:27.990Z,80.56
2017-11-17T05:38:40.537Z,80.18
2017-11-17T05:39:53.535Z,80.85
2017-11-17T05:41:06.555Z,81.04
2017-11-17T05:42:18.645Z,80.94
2017-11-17T05:43:30.727Z,81.24
2017-11-17T05:44:43.706Z,81.52
2017-11-17T05:45:55.861Z,81.81
2017-11-17T05:47:08.874Z,82.01
2017-11-17T05:48:21.861Z,82.1
2017-11-17T05:49:34.882Z,82.01
2017-11-17T05:50:47.869Z,82.59
2017-11-17T05:52:00.858Z,82.35
2017-11-17T05:53:13.653Z,82.39
2017-11-17T05:54:26.677Z,82.54
2017-11-17T05:55:39.702Z,82.78
2017-11-17T05:56:52.732Z,82.83
2017-11-17T05:58:05.257Z,82.26
2017-11-17T05:59:17.808Z,82.93
2017-11-17T06:00:30.816Z,83.03
2017-11-17T06:01:42.895Z,82.74
2017-11-17T06:02:55.923Z,83.12
2017-11-17T06:04:08.657Z,83.22
2017-11-17T06:05:21.624Z,83.31
2017-11-17T06:06:34.599Z,83.41
2017-11-17T06:07:47.608Z,83.61
2017-11-17T06:09:00.630Z,83.7
2017-11-17T06:10:13.602Z,83.41
2017-11-17T06:11:26.613Z,84.09
2017-11-17T06:12:38.657Z,83.41
2017-11-17T06:13:51.632Z,83.8
2017-11-17T06:15:04.658Z,83.8
2017-11-17T06:16:17.682Z,83.31
2017-11-17T06:17:30.225Z,83.7
2017-11-17T06:18:42.741Z,83.8
2017-11-17T06:19:55.273Z,83.89
2017-11-17T06:21:08.307Z,83.8
2017-11-17T06:22:21.338Z,83.8
2017-11-17T06:23:34.348Z,83.22
2017-11-17T06:24:47.326Z,83.03
2017-11-17T06:25:59.838Z,83.31
2017-11-17T06:27:12.839Z,82.83
2017-11-17T06:28:25.796Z,82.97
2017-11-17T06:29:38.719Z,83.07
2017-11-17T06:30:51.255Z,83.31
2017-11-17T06:32:04.255Z,82.93
2017-11-17T06:33:17.252Z,83.12
2017-11-17T06:34:30.226Z,82.87
2017-11-17T06:35:42.755Z,82.93
2017-11-17T06:36:55.852Z,83.26
2017-11-17T06:38:08.863Z,83.74
2017-11-17T06:39:21.888Z,83.31
2017-11-17T06:40:34.921Z,83.16
2017-11-17T06:41:47.951Z,83.16
2017-11-17T06:43:00.940Z,83.45
2017-11-17T06:44:13.033Z,83.45
2017-11-17T06:45:26.054Z,83.12
2017-11-17T06:46:38.597Z,83.12
2017-11-17T06:47:51.595Z,83.16
2017-11-17T06:49:04.591Z,83.22
2017-11-17T06:50:17.123Z,82.93
2017-11-17T06:51:29.197Z,83.99
2017-11-17T06:52:42.231Z,82.93
2017-11-17T06:53:55.296Z,82.83
2017-11-17T06:55:08.349Z,82.83
2017-11-17T06:56:21.546Z,82.93
2017-11-17T06:57:34.089Z,83.22
2017-11-17T06:58:47.111Z,83.03
2017-11-17T07:00:00.142Z,83.12
2017-11-17T07:01:13.173Z,83.41
2017-11-17T07:02:25.684Z,82.74
2017-11-17T07:03:38.257Z,82.74
2017-11-17T07:04:51.222Z,83.22
2017-11-17T07:06:04.216Z,83.22
2017-11-17T07:07:16.793Z,83.51
2017-11-17T07:08:29.340Z,83.22
2017-11-17T07:09:42.360Z,82.93
2017-11-17T07:10:55.580Z,82.83
2017-11-17T07:12:08.057Z,82.93
2017-11-17T07:13:21.078Z,83.61
2017-11-17T07:14:34.074Z,83.7
2017-11-17T07:15:47.091Z,84.47
2017-11-17T07:17:00.150Z,85.34
2017-11-17T07:18:13.217Z,86.59
2017-11-17T07:19:25.731Z,86.69
2017-11-17T07:20:38.752Z,87.03
2017-11-17T07:21:51.282Z,86.83
2017-11-17T07:23:04.314Z,85.87
2017-11-17T07:24:17.306Z,86.45
2017-11-17T07:25:29.862Z,87.12
2017-11-17T07:26:43.067Z,87.51
2017-11-17T07:27:56.094Z,87.51
2017-11-17T07:29:08.623Z,88.38
2017-11-17T07:30:21.594Z,87.8
2017-11-17T07:31:34.121Z,88.28
2017-11-17T07:32:47.133Z,88.09
2017-11-17T07:33:59.192Z,87.32
2017-11-17T07:35:11.744Z,87.22
2017-11-17T07:36:24.707Z,87.51
2017-11-17T07:37:37.734Z,87.6
2017-11-17T07:38:50.779Z,87.9
2017-11-17T07:40:03.771Z,87.7
2017-11-17T07:41:16.338Z,87.7
2017-11-17T07:42:29.372Z,87.8
2017-11-17T07:43:41.896Z,87.12
2017-11-17T07:44:54.876Z,87.7
2017-11-17T07:46:07.868Z,88.28
2017-11-17T07:47:20.663Z,88.62
2017-11-17T07:48:32.736Z,89.49
2017-11-17T07:49:45.700Z,90.73
2017-11-17T07:50:58.747Z,91.27
2017-11-17T07:52:11.252Z,91.66
2017-11-17T07:53:22.813Z,91.75
2017-11-17T07:54:35.877Z,93.19
2017-11-17T07:55:48.403Z,94.25
2017-11-17T07:57:01.411Z,96.27
2017-11-17T07:58:13.940Z,98.91
2017-11-17T07:59:26.691Z,99.99
2017-11-17T08:00:38.787Z,99.99
2017-11-17T08:01:51.842Z,99.99
2017-11-17T08:03:04.931Z,99.99
2017-11-17T08:04:17.969Z,99.99
2017-11-17T08:05:30.509Z,99.99
2017-11-17T08:06:43.513Z,99.99
2017-11-17T08:07:56.067Z,99.99
2017-11-17T08:09:08.648Z,99.99
2017-11-17T08:10:20.727Z,99.99
2017-11-17T08:11:33.747Z,99.99
2017-11-17T08:12:46.246Z,99.99
2017-11-17T08:13:59.228Z,99.99
2017-11-17T08:15:12.262Z,99.99
2017-11-17T08:16:25.257Z,99.99
2017-11-17T08:17:37.812Z,99.99
2017-11-17T08:18:50.806Z,99.99
2017-11-17T08:20:03.832Z,99.99
2017-11-17T08:21:16.810Z,99.99
2017-11-17T08:22:29.828Z,99.99
2017-11-17T08:23:42.388Z,99.99
2017-11-17T08:24:55.408Z,99.99
2017-11-17T08:26:08.390Z,99.99
2017-11-17T08:27:20.401Z,99.99
2017-11-17T08:28:33.412Z,99.99
2017-11-17T08:29:46.365Z,99.99
2017-11-17T08:30:59.405Z,99.99
2017-11-17T08:32:12.421Z,99.99
2017-11-17T08:33:24.990Z,99.99
2017-11-17T08:34:37.971Z,99.99
2017-11-17T08:35:50.519Z,99.99
2017-11-17T08:37:03.518Z,99.99
2017-11-17T08:38:16.108Z,99.99
2017-11-17T08:39:29.144Z,99.99
2017-11-17T08:40:41.651Z,99.99
2017-11-17T08:41:54.660Z,99.99
2017-11-17T08:43:07.666Z,99.99
2017-11-17T08:44:20.745Z,99.99
2017-11-17T08:45:33.757Z,99.99
2017-11-17T08:46:46.773Z,99.99
2017-11-17T08:47:59.801Z,99.99
2017-11-17T08:49:12.765Z,99.99
2017-11-17T08:50:25.998Z,99.99
2017-11-17T08:51:39.045Z,99.99
2017-11-17T08:52:52.068Z,99.99
2017-11-17T08:54:05.078Z,99.99
2017-11-17T08:55:17.592Z,99.99
2017-11-17T08:56:29.667Z,99.99
2017-11-17T08:57:42.689Z,99.99
2017-11-17T08:58:55.654Z,99.99
2017-11-17T09:00:08.607Z,99.99
2017-11-17T09:01:21.155Z,99.99
2017-11-17T09:02:34.192Z,99.99
2017-11-17T09:03:46.687Z,99.99
2017-11-17T09:04:59.219Z,99.99
2017-11-17T09:06:12.208Z,99.99
2017-11-17T09:07:25.212Z,99.99
2017-11-17T09:08:37.754Z,99.99
2017-11-17T09:09:50.254Z,99.99
2017-11-17T09:11:03.313Z,99.99
2017-11-17T09:12:15.854Z,99.99
2017-11-17T09:13:28.845Z,99.99
2017-11-17T09:14:41.417Z,99.99
2017-11-17T09:15:54.455Z,99.99
2017-11-17T09:17:07.452Z,99.99
2017-11-17T09:18:20.465Z,99.99
2017-11-17T09:19:33.026Z,99.99
2017-11-17T09:20:46.131Z,99.99
2017-11-17T09:21:59.150Z,99.99
2017-11-17T09:23:12.200Z,99.99
2017-11-17T09:24:25.200Z,99.99
2017-11-17T09:25:38.174Z,99.99
2017-11-17T09:26:50.693Z,99.99
2017-11-17T09:28:03.233Z,99.99
2017-11-17T09:29:15.753Z,99.99
2017-11-17T09:30:28.306Z,99.99
2017-11-17T09:31:41.376Z,99.99
2017-11-17T09:32:54.411Z,99.99
2017-11-17T09:34:06.465Z,99.99
2017-11-17T09:35:18.979Z,99.99
2017-11-17T09:36:31.512Z,99.99
2017-11-17T09:37:44.548Z,99.99
2017-11-17T09:38:57.077Z,99.99
2017-11-17T09:40:09.632Z,99.99
2017-11-17T09:41:22.399Z,99.99
2017-11-17T09:42:35.391Z,99.99
2017-11-17T09:43:48.443Z,99.99
2017-11-17T09:45:01.478Z,99.99
2017-11-17T09:46:14.003Z,99.99
2017-11-17T09:47:27.083Z,99.99
2017-11-17T09:48:40.147Z,99.99
2017-11-17T09:49:52.667Z,99.99
2017-11-17T09:51:05.735Z,99.99
2017-11-17T09:52:18.744Z,99.99
2017-11-17T09:53:31.264Z,99.99
2017-11-17T09:54:44.244Z,99.99
2017-11-17T09:55:56.777Z,99.99
2017-11-17T09:57:09.291Z,99.99
2017-11-17T09:58:21.852Z,99.99
2017-11-17T09:59:34.347Z,99.99
2017-11-17T10:00:47.375Z,99.99
2017-11-17T10:01:59.902Z,99.99
2017-11-17T10:03:12.903Z,99.99
2017-11-17T10:04:25.884Z,99.99
2017-11-17T10:05:38.432Z,99.99
2017-11-17T10:06:51.480Z,99.99
2017-11-17T10:08:04.484Z,99.99
2017-11-17T10:09:17.033Z,99.99
2017-11-17T10:10:29.571Z,99.99
2017-11-17T10:11:42.564Z,99.99
2017-11-17T10:12:55.567Z,99.99
2017-11-17T10:14:08.852Z,99.99
2017-11-17T10:15:21.823Z,99.99
2017-11-17T10:16:34.854Z,99.99
2017-11-17T10:17:47.389Z,99.99
2017-11-17T10:19:00.405Z,99.99
2017-11-17T10:20:12.948Z,99.99
2017-11-17T10:21:25.488Z,99.99
2017-11-17T10:22:38.137Z,99.99
2017-11-17T10:23:51.113Z,99.99
2017-11-17T10:25:04.114Z,99.99
2017-11-17T10:26:17.115Z,99.99
2017-11-17T10:27:30.100Z,99.99
2017-11-17T10:28:42.668Z,99.99
2017-11-17T10:29:55.282Z,99.99
2017-11-17T10:31:07.335Z,99.99
2017-11-17T10:32:20.334Z,99.99
2017-11-17T10:33:32.847Z,99.99
2017-11-17T10:34:45.876Z,99.99
2017-11-17T10:35:58.405Z,99.99
2017-11-17T10:37:10.947Z,99.99
2017-11-17T10:38:23.953Z,99.99
2017-11-17T10:39:36.975Z,99.99
2017-11-17T10:40:49.965Z,99.99
2017-11-17T10:42:02.034Z,99.99
2017-11-17T10:43:15.044Z,99.99
2017-11-17T10:44:28.037Z,99.99
2017-11-17T10:45:41.027Z,99.99
2017-11-17T10:46:54.040Z,99.99
2017-11-17T10:48:06.999Z,99.99
2017-11-17T10:49:20.039Z,99.99
2017-11-17T10:50:33.102Z,99.99
2017-11-17T10:51:46.225Z,99.99
2017-11-17T10:52:59.330Z,99.99
2017-11-17T10:54:12.371Z,99.99
2017-11-17T10:55:25.338Z,99.99
2017-11-17T10:56:38.325Z,99.99
2017-11-17T10:57:51.313Z,99.99
2017-11-17T10:59:04.343Z,99.99
2017-11-17T11:00:17.378Z,99.99
2017-11-17T11:01:29.922Z,99.99
2017-11-17T11:02:42.908Z,99.99
2017-11-17T11:03:55.908Z,99.99
2017-11-17T11:05:08.674Z,99.99
2017-11-17T11:06:21.192Z,99.99
2017-11-17T11:07:34.207Z,99.99
2017-11-17T11:08:47.262Z,99.99
2017-11-17T11:10:00.312Z,99.99
2017-11-17T11:11:13.339Z,99.99
2017-11-17T11:12:26.370Z,99.99
2017-11-17T11:13:38.944Z,99.99
2017-11-17T11:14:51.931Z,99.99
2017-11-17T11:16:04.990Z,99.99
2017-11-17T11:17:17.535Z,99.99
2017-11-17T11:18:30.543Z,99.99
2017-11-17T11:19:43.096Z,99.99
2017-11-17T11:20:56.149Z,99.99
2017-11-17T11:22:09.135Z,99.99
2017-11-17T11:23:21.688Z,99.99
2017-11-17T11:24:34.705Z,99.99
2017-11-17T11:25:47.471Z,99.99
2017-11-17T11:27:00.065Z,99.99
2017-11-17T11:28:13.052Z,99.99
2017-11-17T11:29:26.082Z,99.99
2017-11-17T11:30:38.613Z,99.99
2017-11-17T11:31:51.127Z,99.99
2017-11-17T11:33:04.139Z,99.99
2017-11-17T11:34:17.122Z,99.99
2017-11-17T11:35:30.160Z,99.99
2017-11-17T11:36:42.680Z,99.99
2017-11-17T11:37:55.637Z,99.99
2017-11-17T11:39:08.826Z,99.99
2017-11-17T11:40:21.805Z,99.99
2017-11-17T11:41:34.785Z,96.61
2017-11-17T11:42:46.904Z,96.8
2017-11-17T11:43:59.430Z,99.84
2017-11-17T11:45:11.499Z,99.16
2017-11-17T11:46:24.492Z,97.77
2017-11-17T11:47:37.517Z,95.64
2017-11-17T11:48:50.543Z,93.71
2017-11-17T11:50:03.505Z,94.24
2017-11-17T11:51:16.523Z,93.95
2017-11-17T11:52:29.541Z,93.62
2017-11-17T11:53:42.593Z,92.75
2017-11-17T11:54:55.605Z,93.18
2017-11-17T11:56:08.651Z,93.76
2017-11-17T11:57:21.691Z,91.49
2017-11-17T11:58:34.710Z,91.01
2017-11-17T11:59:47.243Z,89.56
2017-11-17T12:01:00.259Z,87.71
2017-11-17T12:02:12.897Z,85.05
2017-11-17T12:03:25.432Z,85.4
2017-11-17T12:04:38.419Z,87.13
2017-11-17T12:05:50.968Z,87.87
2017-11-17T12:07:03.937Z,87.82
2017-11-17T12:08:16.990Z,86.9
2017-11-17T12:09:29.557Z,87.48
2017-11-17T12:10:42.097Z,87.09
2017-11-17T12:11:54.684Z,89.17
2017-11-17T12:13:07.705Z,86.71
2017-11-17T12:14:20.751Z,83.08
2017-11-17T12:15:33.306Z,82.39
2017-11-17T12:16:45.840Z,82.2
2017-11-17T12:17:58.796Z,81.9
2017-11-17T12:19:11.809Z,82.35
2017-11-17T12:20:24.832Z,81.9
2017-11-17T12:21:37.355Z,81.77
2017-11-17T12:22:50.415Z,82.06
2017-11-17T12:24:03.467Z,81.77
2017-11-17T12:25:16.542Z,82.83
2017-11-17T12:26:29.544Z,81.87
2017-11-17T12:27:42.091Z,82.06
2017-11-17T12:28:55.121Z,82.98
2017-11-17T12:30:08.117Z,83.27
2017-11-17T12:31:20.165Z,81.96
2017-11-17T12:32:32.293Z,82.54
2017-11-17T12:33:45.301Z,81.29
2017-11-17T12:34:57.349Z,83.08
2017-11-17T12:36:09.945Z,84.3
2017-11-17T12:37:22.026Z,85.26
2017-11-17T12:38:35.226Z,85.45
2017-11-17T12:39:48.261Z,82.4
2017-11-17T12:41:00.928Z,79.45
2017-11-17T12:42:13.479Z,80.84
2017-11-17T12:43:26.512Z,77.98
2017-11-17T12:44:39.577Z,78.36
2017-11-17T12:45:54.108Z,77.88
2017-11-17T12:47:06.208Z,76.82
2017-11-17T12:48:19.253Z,78.85
2017-11-17T12:49:32.264Z,76.82
2017-11-17T12:50:45.273Z,73.11
2017-11-17T12:51:58.269Z,74.86
2017-11-17T12:53:11.528Z,71.7
2017-11-17T12:54:24.547Z,70.51
2017-11-17T12:55:37.546Z,68.86
2017-11-17T12:56:50.098Z,70.57
2017-11-17T12:58:03.153Z,71.5
2017-11-17T12:59:16.160Z,72.05
2017-11-17T13:00:29.144Z,70.01
2017-11-17T13:01:41.711Z,70.15
2017-11-17T13:02:54.718Z,70.47
2017-11-17T13:04:07.265Z,69.57
2017-11-17T13:05:20.278Z,68.99
2017-11-17T13:06:33.287Z,68.82
2017-11-17T13:07:46.296Z,68.37
2017-11-17T13:08:58.850Z,68.37
2017-11-17T13:10:11.891Z,68.18
2017-11-17T13:11:24.884Z,68.51
2017-11-17T13:12:37.959Z,67.18
2017-11-17T13:13:51.021Z,65.27
2017-11-17T13:15:03.115Z,64.43
2017-11-17T13:16:15.714Z,63.75
2017-11-17T13:17:28.740Z,63.68
2017-11-17T13:18:41.758Z,64.98
2017-11-17T13:19:54.309Z,62.74
2017-11-17T13:21:06.858Z,63.52
2017-11-17T13:22:20.107Z,64.78
2017-11-17T13:23:32.201Z,65.24
2017-11-17T13:24:44.768Z,65.24
2017-11-17T13:25:57.830Z,63.71
2017-11-17T13:27:10.853Z,63.07
2017-11-17T13:28:23.932Z,58.59
2017-11-17T13:29:36.920Z,59.91
2017-11-17T13:30:49.983Z,61.47
2017-11-17T13:32:02.660Z,63.36
2017-11-17T13:33:14.747Z,61.71
2017-11-17T13:34:27.753Z,60.96
2017-11-17T13:35:39.368Z,60.08
2017-11-17T13:36:51.909Z,61.54
2017-11-17T13:38:04.918Z,59.33
2017-11-17T13:39:17.473Z,61.38
2017-11-17T13:40:29.668Z,61.54
2017-11-17T13:41:42.710Z,59.99
2017-11-17T13:42:55.246Z,59.92
2017-11-17T13:44:07.790Z,60.02
2017-11-17T13:45:20.311Z,61.54
2017-11-17T13:46:32.837Z,61.15
2017-11-17T13:47:45.906Z,62.41
2017-11-17T13:48:58.458Z,63.26
2017-11-17T13:50:11.513Z,62.97
2017-11-17T13:51:24.523Z,62.97
2017-11-17T13:52:37.562Z,62.9
2017-11-17T13:53:50.116Z,61.47
2017-11-17T13:55:03.124Z,63.23
2017-11-17T13:56:15.218Z,63.29
2017-11-17T13:57:28.236Z,65.66
2017-11-17T13:58:41.212Z,66.89
2017-11-17T13:59:54.241Z,68.41
2017-11-17T14:01:07.295Z,68.08
2017-11-17T14:02:19.836Z,66.82
2017-11-17T14:03:32.875Z,67.73
2017-11-17T14:04:45.875Z,68.89
2017-11-17T14:05:58.445Z,66.56
2017-11-17T14:07:11.482Z,67.73
2017-11-17T14:08:24.137Z,67.11
2017-11-17T14:09:37.172Z,67.89
2017-11-17T14:10:49.687Z,68.28
2017-11-17T14:12:02.909Z,66.63
2017-11-17T14:13:15.438Z,65.85
2017-11-17T14:14:27.137Z,67.14
2017-11-17T14:15:39.689Z,65.01
2017-11-17T14:16:52.713Z,67.31
2017-11-17T14:18:05.715Z,65.27
2017-11-17T14:19:18.767Z,64.92
2017-11-17T14:20:31.300Z,63.26
2017-11-17T14:21:44.315Z,65.5
2017-11-17T14:22:57.360Z,67.18
2017-11-17T14:24:10.333Z,66.86
2017-11-17T14:25:22.891Z,68.02
2017-11-17T14:26:35.886Z,68.76
2017-11-17T14:27:47.928Z,68.47
2017-11-17T14:29:00.966Z,65.69
2017-11-17T14:30:13.976Z,65.01
2017-11-17T14:31:26.534Z,65.75
2017-11-17T14:32:39.099Z,66.14
2017-11-17T14:33:51.668Z,66.72
2017-11-17T14:35:04.235Z,67.47
2017-11-17T14:36:17.218Z,66.53
2017-11-17T14:37:29.757Z,67.73
2017-11-17T14:38:42.759Z,67.92
2017-11-17T14:39:55.975Z,68.28
2017-11-17T14:41:08.993Z,67.95
2017-11-17T14:42:22.037Z,67.85
2017-11-17T14:43:35.032Z,66.69
2017-11-17T14:44:48.076Z,67.76
2017-11-17T14:46:01.110Z,68.44
2017-11-17T14:47:13.685Z,67.66
2017-11-17T14:48:26.719Z,66.72
2017-11-17T14:49:39.745Z,67.57
2017-11-17T14:50:52.734Z,66.6
2017-11-17T14:52:05.800Z,65.08
2017-11-17T14:53:18.329Z,65.56
2017-11-17T14:54:31.371Z,65.27
2017-11-17T14:55:44.341Z,65.53
2017-11-17T14:56:56.894Z,66.5
2017-11-17T14:58:08.968Z,65.43
2017-11-17T14:59:21.960Z,67.08
2017-11-17T15:00:35.020Z,66.69
2017-11-17T15:01:47.557Z,66.69
2017-11-17T15:02:59.640Z,64.04
2017-11-17T15:04:12.855Z,65.79
2017-11-17T15:05:25.855Z,63.43
2017-11-17T15:06:38.828Z,64.95
2017-11-17T15:07:51.826Z,64.4
2017-11-17T15:09:05.066Z,64.4
2017-11-17T15:10:18.069Z,64.27
2017-11-17T15:11:31.094Z,64.2
2017-11-17T15:12:44.128Z,63.43
2017-11-17T15:13:56.443Z,64.78
2017-11-17T15:15:09.409Z,64.3
2017-11-17T15:16:22.440Z,64.3
2017-11-17T15:17:35.531Z,63.43
2017-11-17T15:18:48.544Z,63.04
2017-11-17T15:20:00.639Z,62.95
2017-11-17T15:21:13.893Z,63.62
2017-11-17T15:22:26.894Z,63.43
2017-11-17T15:23:39.946Z,62.59
2017-11-17T15:24:52.744Z,63.36
2017-11-17T15:26:04.846Z,63.23
2017-11-17T15:27:16.980Z,63.46
2017-11-17T15:28:29.986Z,64.4
2017-11-17T15:29:42.685Z,63.17
2017-11-17T15:30:55.260Z,63.07
2017-11-17T15:32:07.794Z,62.39
2017-11-17T15:33:20.353Z,62.68
2017-11-17T15:34:32.915Z,62.68
2017-11-17T15:35:44.998Z,60.64
2017-11-17T15:36:58.009Z,60.87
2017-11-17T15:38:10.525Z,60.97
2017-11-17T15:39:23.067Z,55.75
2017-11-17T15:40:36.093Z,58.76
2017-11-17T15:41:48.617Z,56.21